Main page
METAR-TAF:

METAR-TAF

Airports :

RAF Kinloss

Kinloss, Scotland

latitude: 57-39N, longitude: 003-34W, elevation: 7 m

Current weather observation

The report was made 25 minutes ago, at 10:20 UTC
Wind 15 kt from the Northwest
Temperature 9°C
Humidity 61%
Pressure 1014 hPa
Visibility 10 km or more

METAR: EGQK 161020Z AUTO 31015KT 9999 SCT075/// 09/02 Q1014

Time: 11:45 (10:45 UTC)


TAF: missing

Weather observations and forecasts of more than 4000 airports (METAR and TAF reports).

The available stations are represented by yellow and red dots on the map.

Hover mouse over dot to see the name of the station.

Then click to see weather observations and forecasts.

To change the map : click on the green buttons with a black cross to zoom in, on the green button with a dash to zoom out, or on the green arrows for adjacent maps.


METAR-TAF: